Time;durP1;ratioP1;P1;durP2;ratioP2;P2;SDS_P1;SDS_P2;PMS_P1;PMS_P2;Temp;Humidity;BMP_temperature;BMP_pressure;BME280_temperature;BME280_humidity;BME280_pressure;Samples;Min_cycle;Max_cycle;Signal;HPM_P1;HPM_P2
2024/03/11 00:00:27;;;;;;;0.50;0.50;;;;;;;5.23;100.00;95183.56;29395;200;63005;-91
2024/03/11 00:00:58;;;;;;;0.60;0.60;;;;;;;5.22;100.00;95181.97;29395;246;63009;-90
2024/03/11 00:01:30;;;;;;;0.50;0.50;;;;;;;5.21;100.00;95189.22;29395;199;63005;-89
2024/03/11 00:02:01;;;;;;;0.60;0.60;;;;;;;5.20;100.00;95190.31;29395;226;63009;-89
2024/03/11 00:02:33;;;;;;;0.50;0.50;;;;;;;5.23;100.00;95178.19;29395;221;63004;-90
2024/03/11 00:03:07;;;;;;;0.57;0.57;;;;;;;5.25;100.00;95187.53;29395;265;63009;-90
2024/03/11 00:03:39;;;;;;;0.50;0.50;;;;;;;5.27;100.00;95188.03;29395;207;63018;-90
2024/03/11 00:04:11;;;;;;;0.50;0.50;;;;;;;5.28;100.00;95183.44;29395;197;63009;-89
2024/03/11 00:04:43;;;;;;;0.50;0.50;;;;;;;5.28;100.00;95189.63;29394;198;64008;-88
2024/03/11 00:05:15;;;;;;;0.50;0.50;;;;;;;5.27;100.00;95190.72;29395;219;63008;-90
2024/03/11 00:05:46;;;;;;;0.50;0.50;;;;;;;5.29;100.00;95185.03;29395;196;63004;-91
2024/03/11 00:06:18;;;;;;;0.60;0.60;;;;;;;5.29;100.00;95188.53;29395;286;63009;-90
2024/03/11 00:06:50;;;;;;;0.50;0.50;;;;;;;5.27;100.00;95190.72;29395;263;63005;-90
2024/03/11 00:07:21;;;;;;;0.50;0.50;;;;;;;5.26;100.00;95188.31;29395;284;63009;-90
2024/03/11 00:07:55;;;;;;;0.50;0.50;;;;;;;5.26;100.00;95197.19;29395;202;63005;-92
2024/03/11 00:08:27;;;;;;;0.60;0.60;;;;;;;5.25;100.00;95192.13;29395;246;63009;-89
2024/03/11 00:08:58;;;;;;;0.50;0.50;;;;;;;5.26;100.00;95197.19;29395;225;63010;-90
2024/03/11 00:09:32;;;;;;;0.50;0.50;;;;;;;5.24;100.00;95191.31;29395;243;63009;-89
2024/03/11 00:10:11;;;;;;;0.50;0.50;;;;;;;5.26;100.00;95194.50;29394;221;64009;-91
2024/03/11 00:10:44;;;;;;;0.60;0.60;;;;;;;5.27;100.00;95201.47;29395;232;63009;-89
2024/03/11 00:11:18;;;;;;;0.50;0.50;;;;;;;5.28;100.00;95207.66;29395;238;63004;-90
2024/03/11 00:11:55;;;;;;;3.50;3.22;;;;;;;5.26;100.00;95199.87;29395;223;63009;-88
2024/03/11 00:12:29;;;;;;;0.60;0.60;;;;;;;5.26;100.00;95205.25;29395;239;63004;-89
2024/03/11 00:13:00;;;;;;;0.60;0.60;;;;;;;5.24;100.00;95195.91;29395;218;63009;-89
2024/03/11 00:13:34;;;;;;;0.50;0.50;;;;;;;5.25;100.00;95209.03;29395;213;63005;-92
2024/03/11 00:14:06;;;;;;;0.50;0.50;;;;;;;5.25;100.00;95200.97;29395;228;63009;-90
2024/03/11 00:14:40;;;;;;;0.50;0.50;;;;;;;5.24;100.00;95202.06;29395;209;63005;-88
2024/03/11 00:15:12;;;;;;;0.50;0.50;;;;;;;5.22;100.00;95198.87;29394;198;64013;-89
2024/03/11 00:15:45;;;;;;;0.60;0.60;;;;;;;5.23;100.00;95197.78;29395;235;63005;-90
2024/03/11 00:16:16;;;;;;;0.50;0.50;;;;;;;5.26;100.00;95199.09;29395;209;63009;-89
2024/03/11 00:16:48;;;;;;;0.50;0.50;;;;;;;5.26;100.00;95210.62;29395;245;63005;-91
2024/03/11 00:17:21;;;;;;;0.60;0.60;;;;;;;5.26;100.00;95205.25;29395;203;63009;-90
2024/03/11 00:17:53;;;;;;;0.60;0.60;;;;;;;5.26;100.00;95199.87;29395;217;63007;-90
2024/03/11 00:18:25;;;;;;;0.60;0.60;;;;;;;5.26;100.00;95209.84;29395;197;63023;-93
2024/03/11 00:18:56;;;;;;;0.50;0.50;;;;;;;5.26;100.00;95202.56;29395;224;63004;-90
2024/03/11 00:19:28;;;;;;;0.60;0.60;;;;;;;5.26;100.00;95205.25;29394;235;64009;-90
2024/03/11 00:20:04;;;;;;;0.60;0.60;;;;;;;5.25;100.00;95209.03;29395;232;63009;-90
2024/03/11 00:20:35;;;;;;;0.50;0.50;;;;;;;5.24;100.00;95207.44;29394;199;64014;-90
2024/03/11 00:21:08;;;;;;;0.50;0.50;;;;;;;5.25;100.00;95209.03;29395;223;63005;-91
2024/03/11 00:21:42;;;;;;;0.50;0.50;;;;;;;5.25;100.00;95203.66;29394;264;64014;-90
2024/03/11 00:22:13;;;;;;;0.50;0.50;;;;;;;5.25;100.00;95209.03;29395;267;63005;-91
2024/03/11 00:22:45;;;;;;;0.50;0.50;;;;;;;5.27;100.00;95206.84;29395;206;63009;-90
2024/03/11 00:23:18;;;;;;;0.50;0.50;;;;;;;5.28;100.00;95213.03;29395;232;63005;-91
2024/03/11 00:23:50;;;;;;;0.50;0.50;;;;;;;5.25;100.00;95214.41;29395;232;63009;-92
2024/03/11 00:24:23;;;;;;;0.60;0.60;;;;;;;5.23;100.00;95213.94;29395;202;63005;-90
2024/03/11 00:24:54;;;;;;;0.50;0.50;;;;;;;5.20;100.00;95201.06;29395;284;63009;-90
2024/03/11 00:25:26;;;;;;;0.50;0.50;;;;;;;5.22;100.00;95220.41;29395;224;63012;-89
2024/03/11 00:25:57;;;;;;;0.55;0.55;;;;;;;5.22;100.00;95217.72;29395;241;63009;-90
2024/03/11 00:26:29;;;;;;;0.60;0.60;;;;;;;5.29;100.00;95215.41;29395;227;63004;-89
2024/03/11 00:27:08;;;;;;;0.52;0.52;;;;;;;5.35;100.00;95218.81;29394;276;64013;-90
2024/03/11 00:27:40;;;;;;;0.60;0.60;;;;;;;5.35;100.00;95214.22;29395;241;63004;-90
2024/03/11 00:28:11;;;;;;;0.60;0.60;;;;;;;5.34;100.00;95223.38;29395;233;63009;-91
2024/03/11 00:28:44;;;;;;;0.57;0.57;;;;;;;5.38;100.00;95213.63;29395;216;63005;-90
2024/03/11 00:29:16;;;;;;;0.50;0.50;;;;;;;5.40;100.00;95218.72;29395;266;63009;-91
2024/03/11 00:29:50;;;;;;;0.60;0.60;;;;;;;5.40;100.00;95213.34;29395;261;63005;-90
2024/03/11 00:30:23;;;;;;;0.50;0.50;;;;;;;5.38;100.00;95219.00;29395;245;63009;-90
2024/03/11 00:30:55;;;;;;;0.50;0.50;;;;;;;5.30;100.00;95211.62;29395;213;63005;-91
2024/03/11 00:31:29;;;;;;;0.60;0.60;;;;;;;5.34;100.00;95227.97;29395;246;63009;-89
2024/03/11 00:32:09;;;;;;;0.50;0.50;;;;;;;5.33;100.00;95221.00;29395;230;63005;-90
2024/03/11 00:32:45;;;;;;;0.50;0.50;;;;;;;5.38;100.00;95224.38;29394;271;64013;-91
2024/03/11 00:33:17;;;;;;;0.60;0.60;;;;;;;5.37;100.00;95228.19;29395;205;63004;-89
2024/03/11 00:33:49;;;;;;;0.50;0.50;;;;;;;5.38;100.00;95227.06;29395;231;63009;-92
2024/03/11 00:34:20;;;;;;;0.60;0.60;;;;;;;5.35;100.00;95230.37;29395;205;63004;-92
2024/03/11 00:34:51;;;;;;;0.50;0.50;;;;;;;5.37;100.00;95227.38;29395;274;63008;-91
2024/03/11 00:35:24;;;;;;;0.60;0.60;;;;;;;5.35;100.00;95222.28;29395;202;63004;-88
2024/03/11 00:35:55;;;;;;;0.60;0.60;;;;;;;5.33;100.00;95229.06;29395;219;63009;-89
2024/03/11 00:36:27;;;;;;;0.60;0.60;;;;;;;5.31;100.00;95224.00;29395;227;63005;-91
2024/03/11 00:36:59;;;;;;;0.60;0.60;;;;;;;5.28;100.00;95227.28;29395;247;63009;-89
2024/03/11 00:37:31;;;;;;;0.60;0.60;;;;;;;5.27;100.00;95228.38;29395;268;63005;-90
2024/03/11 00:38:07;;;;;;;0.60;0.60;;;;;;;5.25;100.00;95232.44;29394;206;64013;-90
2024/03/11 00:38:39;;;;;;;0.50;0.50;;;;;;;5.26;100.00;95239.41;29394;213;64009;-89
2024/03/11 00:39:15;;;;;;;0.50;0.50;;;;;;;5.26;100.00;95234.03;29395;239;63009;-90
2024/03/11 00:39:46;;;;;;;0.60;0.60;;;;;;;5.25;100.00;95235.94;29395;219;63004;-90
2024/03/11 00:40:18;;;;;;;0.60;0.60;;;;;;;5.26;100.00;95231.34;29395;203;63009;-91
2024/03/11 00:40:49;;;;;;;0.50;0.50;;;;;;;5.26;100.00;95231.34;29395;299;63004;-90
2024/03/11 00:41:21;;;;;;;0.57;0.57;;;;;;;5.25;100.00;95232.44;29395;293;63009;-89
2024/03/11 00:41:53;;;;;;;0.60;0.60;;;;;;;5.17;100.00;95228.59;29395;240;63004;-90
2024/03/11 00:42:24;;;;;;;0.60;0.60;;;;;;;5.24;100.00;95239.72;29395;229;63008;-90
2024/03/11 00:42:56;;;;;;;0.60;0.60;;;;;;;5.24;100.00;95228.97;29395;226;63004;-89
2024/03/11 00:43:27;;;;;;;0.60;0.60;;;;;;;5.27;100.00;95233.75;29395;219;63009;-91
2024/03/11 00:43:59;;;;;;;0.60;0.60;;;;;;;5.29;100.00;95242.31;29394;299;64009;-88
2024/03/11 00:44:31;;;;;;;0.50;0.50;;;;;;;5.29;100.00;95231.56;29395;222;63009;-91
2024/03/11 00:45:02;;;;;;;0.52;0.52;;;;;;;5.28;100.00;95234.53;29395;226;63005;-89
2024/03/11 00:45:34;;;;;;;0.57;0.57;;;;;;;5.28;100.00;95234.53;29395;233;63009;-90
2024/03/11 00:46:05;;;;;;;0.52;0.52;;;;;;;5.29;100.00;95234.25;29395;236;63005;-91
2024/03/11 00:46:37;;;;;;;0.50;0.50;;;;;;;5.29;100.00;95231.56;29395;258;63009;-90
2024/03/11 00:47:08;;;;;;;0.50;0.50;;;;;;;5.33;100.00;95242.50;29395;216;63008;-89
2024/03/11 00:47:41;;;;;;;0.50;0.50;;;;;;;5.33;100.00;95232.56;29395;210;63009;-89
2024/03/11 00:48:13;;;;;;;0.60;0.60;;;;;;;5.34;100.00;95244.91;29395;202;63004;-91
2024/03/11 00:48:45;;;;;;;0.60;0.60;;;;;;;5.34;100.00;95233.34;29395;287;63009;-91
2024/03/11 00:49:19;;;;;;;0.50;0.50;;;;;;;5.34;100.00;95244.09;29394;225;64000;-91
2024/03/11 00:49:50;;;;;;;0.50;0.50;;;;;;;5.33;100.00;95235.25;29395;305;63008;-90
2024/03/11 00:50:22;;;;;;;0.50;0.50;;;;;;;5.35;100.00;95241.12;29395;223;63004;-90
2024/03/11 00:50:53;;;;;;;0.50;0.50;;;;;;;5.38;100.00;95237.84;29395;266;63009;-90
2024/03/11 00:51:26;;;;;;;0.50;0.50;;;;;;;5.36;100.00;95245.41;29395;235;63005;-89
2024/03/11 00:51:57;;;;;;;0.50;0.50;;;;;;;5.37;100.00;95238.13;29395;240;63009;-92
2024/03/11 00:52:28;;;;;;;0.50;0.50;;;;;;;5.44;100.00;95243.13;29395;239;63005;-90
2024/03/11 00:53:00;;;;;;;0.60;0.60;;;;;;;5.43;100.00;95246.91;29395;237;63009;-88
2024/03/11 00:53:31;;;;;;;0.50;0.50;;;;;;;5.43;100.00;95247.69;29395;234;63005;-89
2024/03/11 00:54:02;;;;;;;0.50;0.50;;;;;;;5.43;100.00;95252.28;29395;221;63009;-91
2024/03/11 00:54:34;;;;;;;0.50;0.50;;;;;;;5.45;100.00;95250.09;29394;222;64009;-90
2024/03/11 00:55:09;;;;;;;0.60;0.60;;;;;;;5.44;100.00;95248.50;29395;203;63009;-91
2024/03/11 00:55:40;;;;;;;0.50;0.50;;;;;;;5.44;100.00;95260.06;29395;196;63004;-90
2024/03/11 00:56:11;;;;;;;0.50;0.50;;;;;;;5.42;100.00;95256.06;29395;227;63009;-90
2024/03/11 00:56:43;;;;;;;0.50;0.50;;;;;;;5.39;100.00;95252.87;29395;204;63004;-92
2024/03/11 00:57:15;;;;;;;0.50;0.50;;;;;;;5.42;100.00;95250.69;29395;235;63009;-90
2024/03/11 00:57:46;;;;;;;0.50;0.50;;;;;;;5.43;100.00;95247.69;29395;209;63004;-90
2024/03/11 00:58:17;;;;;;;0.50;0.50;;;;;;;5.44;100.00;95259.25;29395;297;63009;-91
2024/03/11 00:58:48;;;;;;;0.60;0.60;;;;;;;5.44;100.00;95248.50;29395;293;63005;-90
2024/03/11 00:59:20;;;;;;;0.50;0.50;;;;;;;5.43;100.00;95252.28;29395;245;63017;-91
2024/03/11 00:59:52;;;;;;;0.50;0.50;;;;;;;5.42;100.00;95261.44;29394;225;64009;-92
2024/03/11 01:00:24;;;;;;;0.50;0.50;;;;;;;5.41;100.00;95254.47;29395;216;63009;-91
2024/03/11 01:00:55;;;;;;;0.50;0.50;;;;;;;5.43;100.00;95263.03;29395;251;63005;-92
2024/03/11 01:01:26;;;;;;;0.50;0.50;;;;;;;5.45;100.00;95258.16;29394;211;64013;-90
2024/03/11 01:01:58;;;;;;;0.50;0.50;;;;;;;5.33;100.00;95251.38;29395;204;63004;-90
2024/03/11 01:02:32;;;;;;;0.50;0.50;;;;;;;5.43;100.00;95258.47;29395;294;63009;-92
2024/03/11 01:03:06;;;;;;;0.50;0.50;;;;;;;5.45;100.00;95260.84;29395;272;63004;-89
2024/03/11 01:03:37;;;;;;;0.50;0.50;;;;;;;5.45;100.00;95266.22;29395;281;63009;-90
2024/03/11 01:04:09;;;;;;;0.50;0.50;;;;;;;5.43;100.00;95263.03;29395;235;63010;-90
2024/03/11 01:04:42;;;;;;;0.50;0.50;;;;;;;5.40;100.00;95259.06;29395;214;63008;-89
2024/03/11 01:05:14;;;;;;;0.50;0.50;;;;;;;5.39;100.00;95258.25;29395;213;63004;-88
2024/03/11 01:05:45;;;;;;;0.50;0.50;;;;;;;5.38;100.00;95266.63;29395;282;63009;-90
2024/03/11 01:06:17;;;;;;;0.60;0.60;;;;;;;5.35;100.00;95257.25;29395;206;63005;-92
2024/03/11 01:06:48;;;;;;;0.50;0.50;;;;;;;5.33;100.00;95264.81;29394;242;64013;-92
2024/03/11 01:07:20;;;;;;;0.50;0.50;;;;;;;5.35;100.00;95264.53;29395;216;63005;-89
2024/03/11 01:07:52;;;;;;;0.60;0.60;;;;;;;5.34;100.00;95257.56;29395;208;63009;-90
2024/03/11 01:08:29;;;;;;;0.57;0.57;;;;;;;5.32;100.00;95255.16;29395;236;63005;-88
2024/03/11 01:09:00;;;;;;;0.60;0.60;;;;;;;5.33;100.00;95264.03;29395;229;63009;-88
2024/03/11 01:09:31;;;;;;;0.50;0.50;;;;;;;5.32;100.00;95267.81;29395;202;63004;-90
2024/03/11 01:10:08;;;;;;;0.50;0.50;;;;;;;5.30;100.00;95265.44;29395;222;63009;-91
2024/03/11 01:10:39;;;;;;;0.60;0.60;;;;;;;5.30;100.00;95262.72;29395;233;63004;-91
2024/03/11 01:11:10;;;;;;;0.50;0.50;;;;;;;5.29;100.00;95257.66;29395;213;63009;-88
2024/03/11 01:11:43;;;;;;;0.50;0.50;;;;;;;5.29;100.00;95260.34;29395;245;63004;-90
2024/03/11 01:12:15;;;;;;;0.50;0.50;;;;;;;5.28;100.00;95267.63;29394;204;64013;-90
2024/03/11 01:12:46;;;;;;;0.50;0.50;;;;;;;5.28;100.00;95262.22;29395;219;63005;-90
2024/03/11 01:13:18;;;;;;;0.50;0.50;;;;;;;5.29;100.00;95269.22;29395;230;63009;-89
2024/03/11 01:13:50;;;;;;;0.60;0.60;;;;;;;5.30;100.00;95267.31;29395;204;63005;-89
2024/03/11 01:14:23;;;;;;;0.60;0.60;;;;;;;5.27;100.00;95271.41;29395;211;63009;-89
2024/03/11 01:14:55;;;;;;;0.60;0.60;;;;;;;5.28;100.00;95273.00;29395;203;63005;-89
2024/03/11 01:15:26;;;;;;;0.57;0.57;;;;;;;5.28;100.00;95272.19;29395;214;63009;-90
2024/03/11 01:15:57;;;;;;;0.57;0.57;;;;;;;5.28;100.00;95262.22;29395;218;63005;-91
2024/03/11 01:16:29;;;;;;;0.60;0.60;;;;;;;5.28;100.00;95273.00;29395;211;63009;-91
2024/03/11 01:17:02;;;;;;;0.60;0.60;;;;;;;5.29;100.00;95271.91;29395;212;63004;-92
2024/03/11 01:17:34;;;;;;;0.60;0.60;;;;;;;5.30;100.00;95273.50;29394;253;64013;-88
2024/03/11 01:18:07;;;;;;;0.50;0.50;;;;;;;5.29;100.00;95274.59;29395;278;63004;-89
2024/03/11 01:18:39;;;;;;;0.50;0.50;;;;;;;5.27;100.00;95276.78;29395;275;63019;-91
2024/03/11 01:19:11;;;;;;;0.50;0.50;;;;;;;5.33;100.00;95277.47;29395;222;63004;-91
2024/03/11 01:19:42;;;;;;;0.50;0.50;;;;;;;5.32;100.00;95276.69;29395;256;63008;-90
2024/03/11 01:20:15;;;;;;;0.50;0.50;;;;;;;5.30;100.00;95276.19;29395;218;63005;-89
2024/03/11 01:20:46;;;;;;;0.50;0.50;;;;;;;5.30;100.00;95278.88;29395;219;63009;-88
2024/03/11 01:21:17;;;;;;;0.60;0.60;;;;;;;5.31;100.00;95279.66;29395;241;63005;-89
2024/03/11 01:21:49;;;;;;;0.60;0.60;;;;;;;5.31;100.00;95283.16;29395;207;63005;-90
2024/03/11 01:22:21;;;;;;;0.60;0.60;;;;;;;5.29;100.00;95279.97;29395;220;63005;-90
2024/03/11 01:22:54;;;;;;;0.50;0.50;;;;;;;5.28;100.00;95280.25;29394;235;64013;-90
2024/03/11 01:23:26;;;;;;;0.50;0.50;;;;;;;5.26;100.00;95277.88;29395;202;63005;-89
2024/03/11 01:23:57;;;;;;;0.50;0.50;;;;;;;5.27;100.00;95282.16;29395;218;63009;-91
2024/03/11 01:24:30;;;;;;;0.50;0.50;;;;;;;5.27;100.00;95276.78;29395;237;63009;-89
2024/03/11 01:25:01;;;;;;;0.50;0.50;;;;;;;5.27;100.00;95276.78;29395;249;63009;-90
2024/03/11 01:25:33;;;;;;;0.50;0.50;;;;;;;5.29;100.00;95288.03;29395;223;63004;-90
2024/03/11 01:26:06;;;;;;;0.50;0.50;;;;;;;5.28;100.00;95286.44;29395;305;63009;-90
2024/03/11 01:26:38;;;;;;;0.50;0.50;;;;;;;5.24;100.00;95277.38;29395;222;63004;-90
2024/03/11 01:27:14;;;;;;;0.60;0.60;;;;;;;5.22;100.00;95284.94;29395;239;63008;-92
2024/03/11 01:27:45;;;;;;;0.50;0.50;;;;;;;5.25;100.00;95284.34;29395;205;63005;-90
2024/03/11 01:28:17;;;;;;;0.60;0.60;;;;;;;5.25;100.00;95284.34;29394;352;64014;-91
2024/03/11 01:28:49;;;;;;;0.60;0.60;;;;;;;5.25;100.00;95287.03;29395;218;63005;-92
2024/03/11 01:29:21;;;;;;;0.60;0.60;;;;;;;5.25;100.00;95284.34;29395;222;63009;-90
2024/03/11 01:29:52;;;;;;;0.50;0.50;;;;;;;5.25;100.00;95284.34;29395;226;63005;-90
2024/03/11 01:30:24;;;;;;;0.60;0.60;;;;;;;5.25;100.00;95286.22;29395;225;63009;-90
2024/03/11 01:30:56;;;;;;;0.50;0.50;;;;;;;5.24;100.00;95292.69;29395;215;63005;-89
2024/03/11 01:31:28;;;;;;;0.60;0.60;;;;;;;5.24;100.00;95288.13;29395;207;63009;-90
2024/03/11 01:32:00;;;;;;;0.60;0.60;;;;;;;5.23;100.00;95286.53;29395;198;63004;-88
2024/03/11 01:32:31;;;;;;;0.60;0.60;;;;;;;5.20;100.00;95287.12;29395;217;63009;-90
2024/03/11 01:33:05;;;;;;;0.60;0.60;;;;;;;5.20;100.00;95292.50;29395;208;63004;-89
2024/03/11 01:33:37;;;;;;;0.60;0.60;;;;;;;5.18;100.00;95285.84;29394;218;64013;-91
2024/03/11 01:34:09;;;;;;;0.60;0.60;;;;;;;5.17;100.00;95287.75;29395;212;63004;-89
2024/03/11 01:34:44;;;;;;;0.50;0.50;;;;;;;5.15;100.00;95289.13;29395;233;63008;-89
2024/03/11 01:35:16;;;;;;;0.60;0.60;;;;;;;5.12;100.00;95290.53;29395;276;63010;-89
2024/03/11 01:35:47;;;;;;;0.50;0.50;;;;;;;5.11;100.00;95288.94;29395;197;63009;-90
2024/03/11 01:36:19;;;;;;;0.50;0.50;;;;;;;5.15;100.00;95289.94;29395;229;63005;-89
2024/03/11 01:36:50;;;;;;;0.50;0.50;;;;;;;5.16;100.00;95285.34;29395;197;63009;-89
2024/03/11 01:37:22;;;;;;;0.55;0.55;;;;;;;5.15;100.00;95294.50;29395;264;63005;-89
2024/03/11 01:37:53;;;;;;;0.60;0.60;;;;;;;5.14;100.00;95285.66;29395;237;63009;-90
2024/03/11 01:38:26;;;;;;;0.50;0.50;;;;;;;5.14;100.00;95287.53;29395;245;63005;-89
2024/03/11 01:38:58;;;;;;;0.50;0.50;;;;;;;5.14;100.00;95287.53;29394;235;64013;-91
2024/03/11 01:39:42;;;;;;;0.50;0.50;;;;;;;5.13;100.00;95286.75;29395;228;63004;-89
2024/03/11 01:40:13;;;;;;;0.50;0.50;;;;;;;5.12;100.00;95293.22;29395;237;63009;-89
2024/03/11 01:40:46;;;;;;;0.60;0.60;;;;;;;5.12;100.00;95290.53;29395;225;63004;-90
2024/03/11 01:41:19;;;;;;;0.50;0.50;;;;;;;5.17;100.00;95292.31;29395;209;63009;-90
2024/03/11 01:41:51;;;;;;;0.50;0.50;;;;;;;5.18;100.00;95291.22;29395;230;63004;-89
2024/03/11 01:42:22;;;;;;;0.50;0.50;;;;;;;5.18;100.00;95294.72;29395;208;63008;-89
2024/03/11 01:42:54;;;;;;;0.50;0.50;;;;;;;5.18;100.00;95294.72;29395;213;63005;-89
2024/03/11 01:43:25;;;;;;;0.60;0.60;;;;;;;5.19;100.00;95300.88;29395;197;63009;-89
2024/03/11 01:43:57;;;;;;;0.50;0.50;;;;;;;5.17;100.00;95292.31;29394;203;64009;-91
2024/03/11 01:44:28;;;;;;;0.50;0.50;;;;;;;5.16;100.00;95296.91;29395;232;63015;-88
2024/03/11 01:45:00;;;;;;;0.50;0.50;;;;;;;5.15;100.00;95292.63;29395;213;63005;-90
2024/03/11 01:45:32;;;;;;;0.60;0.60;;;;;;;5.13;100.00;95300.19;29395;197;63009;-89
2024/03/11 01:46:06;;;;;;;0.50;0.50;;;;;;;5.13;100.00;95296.69;29394;252;64009;-88
2024/03/11 01:46:37;;;;;;;0.50;0.50;;;;;;;5.14;100.00;95301.78;29395;208;63009;-89
2024/03/11 01:47:11;;;;;;;0.60;0.60;;;;;;;5.14;100.00;95296.41;29395;264;63004;-90
2024/03/11 01:47:43;;;;;;;0.50;0.50;;;;;;;5.15;100.00;95306.06;29395;207;63009;-89
2024/03/11 01:48:15;;;;;;;0.50;0.50;;;;;;;5.13;100.00;95302.88;29395;217;63004;-90
2024/03/11 01:48:47;;;;;;;0.50;0.50;;;;;;;5.11;100.00;95299.69;29395;244;63009;-91
2024/03/11 01:49:21;;;;;;;0.52;0.52;;;;;;;5.11;100.00;95293.50;29395;206;63004;-92
2024/03/11 01:49:54;;;;;;;0.60;0.60;;;;;;;5.11;100.00;95310.44;29395;272;63008;-89
2024/03/11 01:50:26;;;;;;;0.50;0.50;;;;;;;5.11;100.00;95310.44;29395;200;63005;-89
2024/03/11 01:50:58;;;;;;;0.50;0.50;;;;;;;5.09;100.00;95311.81;29395;247;63020;-88
2024/03/11 01:51:32;;;;;;;0.50;0.50;;;;;;;5.09;100.00;95309.94;29394;258;64009;-89
2024/03/11 01:52:06;;;;;;;0.60;0.60;;;;;;;5.08;100.00;95311.03;29394;283;64013;-89
2024/03/11 01:52:43;;;;;;;0.50;0.50;;;;;;;5.13;100.00;95308.25;29395;259;63005;-88
2024/03/11 01:53:16;;;;;;;0.50;0.50;;;;;;;5.17;100.00;95309.25;29395;235;63009;-89
2024/03/11 01:53:48;;;;;;;0.50;0.50;;;;;;;5.18;100.00;95302.78;29395;215;63005;-90
2024/03/11 01:54:20;;;;;;;0.52;0.52;;;;;;;5.18;100.00;95308.16;29395;216;63009;-89
2024/03/11 01:54:55;;;;;;;0.60;0.60;;;;;;;5.14;100.00;95304.47;29395;198;63004;-89
2024/03/11 01:55:27;;;;;;;0.60;0.60;;;;;;;5.10;100.00;95311.53;29395;222;63009;-88
2024/03/11 01:56:00;;;;;;;0.50;0.50;;;;;;;5.07;100.00;95316.69;29395;283;63004;-89
2024/03/11 01:56:32;;;;;;;0.60;0.60;;;;;;;5.06;100.00;95310.53;29395;211;63009;-89
2024/03/11 01:57:10;;;;;;;0.60;0.60;;;;;;;5.03;100.00;95309.22;29394;205;64008;-89
2024/03/11 01:57:42;;;;;;;0.50;0.50;;;;;;;5.02;100.00;95312.19;29395;215;63009;-90
2024/03/11 01:58:16;;;;;;;0.60;0.60;;;;;;;5.01;100.00;95305.22;29395;210;63005;-89
2024/03/11 01:58:49;;;;;;;0.60;0.60;;;;;;;5.00;100.00;95309.00;29394;198;64014;-90
2024/03/11 01:59:22;;;;;;;0.60;0.60;;;;;;;5.01;100.00;95311.41;29395;224;63005;-88
2024/03/11 01:59:54;;;;;;;0.60;0.60;;;;;;;5.00;100.00;95304.44;29395;231;63015;-88
2024/03/11 02:00:26;;;;;;;0.60;0.60;;;;;;;5.00;100.00;95312.50;29395;205;63005;-90
2024/03/11 02:00:57;;;;;;;0.60;0.60;;;;;;;4.97;100.00;95307.72;29395;224;63009;-89
2024/03/11 02:01:30;;;;;;;0.50;0.50;;;;;;;4.97;100.00;95306.91;29395;215;63005;-89
2024/03/11 02:02:08;;;;;;;0.50;0.50;;;;;;;4.95;100.00;95317.16;29395;218;63009;-89
2024/03/11 02:02:39;;;;;;;0.50;0.50;;;;;;;4.94;100.00;95304.81;29395;206;63004;-90
2024/03/11 02:03:11;;;;;;;0.50;0.50;;;;;;;4.94;100.00;95300.22;29395;220;63009;-90
2024/03/11 02:03:42;;;;;;;0.50;0.50;;;;;;;4.94;100.00;95304.81;29395;199;63004;-89
2024/03/11 02:04:16;;;;;;;0.60;0.60;;;;;;;4.93;100.00;95305.91;29394;258;64013;-90
2024/03/11 02:04:48;;;;;;;0.50;0.50;;;;;;;4.92;100.00;95310.47;29395;247;63004;-90
2024/03/11 02:05:27;;;;;;;0.60;0.60;;;;;;;4.92;100.00;95301.62;29395;228;63009;-88
2024/03/11 02:05:59;;;;;;;0.55;0.55;;;;;;;4.94;100.00;95312.87;29395;242;63005;-87
2024/03/11 02:06:31;;;;;;;0.50;0.50;;;;;;;4.95;100.00;95309.91;29395;213;63009;-88
2024/03/11 02:07:03;;;;;;;0.50;0.50;;;;;;;4.96;100.00;95302.62;29395;203;63005;-90
2024/03/11 02:07:37;;;;;;;0.50;0.50;;;;;;;4.96;100.00;95298.03;29395;240;63009;-88
2024/03/11 02:08:09;;;;;;;0.60;0.60;;;;;;;4.96;100.00;95302.62;29395;241;63005;-89
2024/03/11 02:08:42;;;;;;;0.50;0.50;;;;;;;4.95;100.00;95301.03;29395;221;63009;-90
2024/03/11 02:09:14;;;;;;;0.60;0.60;;;;;;;5.04;100.00;95305.44;29395;236;63004;-91
2024/03/11 02:09:47;;;;;;;0.60;0.60;;;;;;;5.04;100.00;95304.63;29394;203;64013;-92
2024/03/11 02:10:20;;;;;;;0.52;0.52;;;;;;;5.02;100.00;95306.81;29395;334;63004;-90
2024/03/11 02:10:51;;;;;;;0.60;0.60;;;;;;;5.00;100.00;95299.06;29395;218;63009;-91
2024/03/11 02:11:24;;;;;;;0.50;0.50;;;;;;;4.99;100.00;95291.28;29395;281;63004;-90
2024/03/11 02:11:56;;;;;;;0.60;0.60;;;;;;;4.97;100.00;95290.78;29395;230;63008;-91
2024/03/11 02:12:27;;;;;;;0.60;0.60;;;;;;;4.97;100.00;95298.84;29395;224;63004;-91
2024/03/11 02:12:59;;;;;;;0.60;0.60;;;;;;;4.95;100.00;95292.97;29395;203;63009;-91
2024/03/11 02:13:31;;;;;;;0.52;0.52;;;;;;;4.95;100.00;95290.28;29395;208;63005;-90
2024/03/11 02:14:04;;;;;;;0.60;0.60;;;;;;;4.93;100.00;95293.25;29395;202;63009;-91
2024/03/11 02:14:36;;;;;;;0.60;0.60;;;;;;;4.92;100.00;95293.56;29395;210;63005;-90
2024/03/11 02:16:13;;;;;;;0.60;0.60;;;;;;;4.89;100.00;95294.16;88181;244;64005;-91
2024/03/11 02:16:47;;;;;;;0.52;0.52;;;;;;;4.89;100.00;95296.84;29394;291;64009;-90
2024/03/11 02:17:19;;;;;;;0.60;0.60;;;;;;;4.88;100.00;95290.66;29395;199;63004;-90
2024/03/11 02:17:53;;;;;;;0.60;0.60;;;;;;;4.87;100.00;95297.13;29395;285;63009;-91
2024/03/11 02:18:25;;;;;;;0.57;0.57;;;;;;;4.86;100.00;95297.41;29395;210;63004;-91
2024/03/11 02:18:56;;;;;;;0.60;0.60;;;;;;;4.86;100.00;95294.72;29395;258;63008;-90
2024/03/11 02:19:28;;;;;;;0.57;0.57;;;;;;;4.85;100.00;95298.53;29395;275;63015;-93
2024/03/11 02:20:02;;;;;;;0.60;0.60;;;;;;;4.85;100.00;95295.84;29395;324;63009;-90
2024/03/11 02:20:36;;;;;;;0.50;0.50;;;;;;;4.86;100.00;95297.41;29394;197;64009;-91
2024/03/11 02:21:11;;;;;;;0.60;0.60;;;;;;;4.85;100.00;95301.22;29395;264;63009;-92
2024/03/11 02:21:45;;;;;;;0.60;0.60;;;;;;;4.85;100.00;95301.22;29395;200;63005;-93
2024/03/11 02:22:17;;;;;;;0.50;0.50;;;;;;;4.85;100.00;95298.53;29395;286;63009;-91
2024/03/11 02:22:53;;;;;;;0.60;0.60;;;;;;;4.85;100.00;95306.59;29395;219;63005;-91
2024/03/11 02:23:24;;;;;;;0.60;0.60;;;;;;;4.84;100.00;95294.25;29395;204;63017;-91
2024/03/11 02:23:56;;;;;;;0.60;0.60;;;;;;;4.84;100.00;95297.75;29395;239;63005;-91
2024/03/11 02:24:27;;;;;;;0.60;0.60;;;;;;;4.85;100.00;95298.53;29395;205;63009;-90
2024/03/11 02:24:59;;;;;;;0.60;0.60;;;;;;;4.84;100.00;95299.63;29395;208;63004;-91
2024/03/11 02:25:31;;;;;;;0.60;0.60;;;;;;;4.83;100.00;95303.41;29395;231;63009;-91
2024/03/11 02:26:06;;;;;;;0.60;0.60;;;;;;;4.82;100.00;95301.81;29394;199;64009;-90
2024/03/11 02:26:37;;;;;;;0.50;0.50;;;;;;;4.81;100.00;95305.59;29395;227;63008;-91
2024/03/11 02:27:11;;;;;;;0.60;0.60;;;;;;;4.80;100.00;95312.84;29395;244;63014;-90
2024/03/11 02:27:45;;;;;;;0.50;0.50;;;;;;;4.78;100.00;95303.50;29395;204;63009;-90
2024/03/11 02:28:18;;;;;;;0.50;0.50;;;;;;;4.80;100.00;95309.38;29395;228;63010;-91
2024/03/11 02:28:50;;;;;;;0.60;0.60;;;;;;;4.80;100.00;95307.47;29395;263;63009;-92
2024/03/11 02:29:23;;;;;;;0.60;0.60;;;;;;;4.80;100.00;95309.38;29395;253;63006;-91
2024/03/11 02:29:54;;;;;;;0.60;0.60;;;;;;;4.85;100.00;95309.28;29395;214;63009;-90
2024/03/11 02:30:27;;;;;;;0.60;0.60;;;;;;;4.88;100.00;95306.00;29395;209;63005;-91
2024/03/11 02:30:59;;;;;;;0.60;0.60;;;;;;;4.90;100.00;95309.19;29395;213;63009;-90
2024/03/11 02:31:34;;;;;;;0.50;0.50;;;;;;;4.90;100.00;95309.97;29394;203;64009;-92
2024/03/11 02:32:07;;;;;;;0.50;0.50;;;;;;;4.89;100.00;95312.97;29395;235;63009;-91
2024/03/11 02:32:39;;;;;;;0.50;0.50;;;;;;;4.87;100.00;95315.94;29395;248;63004;-91
2024/03/11 02:33:10;;;;;;;0.50;0.50;;;;;;;4.86;100.00;95308.16;29395;243;63009;-89
2024/03/11 02:33:42;;;;;;;0.60;0.60;;;;;;;4.85;100.00;95311.97;29395;235;63004;-91
2024/03/11 02:34:16;;;;;;;0.60;0.60;;;;;;;4.83;100.00;95314.16;29395;196;63008;-91
2024/03/11 02:34:47;;;;;;;0.60;0.60;;;;;;;4.82;100.00;95313.37;29395;215;63004;-90
2024/03/11 02:35:21;;;;;;;0.60;0.60;;;;;;;4.84;100.00;95308.50;29395;335;63009;-90
2024/03/11 02:35:52;;;;;;;0.60;0.60;;;;;;;4.86;100.00;95313.53;29395;269;63005;-92